Latest  Newer  Older  Last 2 hours animation  Current image  Latest image 
Rain/snow radar  Infrared sat images 
Real-time lightning map

All time is UTC (add 2 hours to UTC in wintertime, 3 hours to UTC in DST for Latvia local time)

2021/01/27 17:50 EVRA 271750Z 30005KT 240V340 9999 -SN SCT008 BKN011 OVC017 01/M00 Q1004 R36/490393 NOSIG
2021/01/27 17:50 EVLA 271750Z AUTO 30007KT 260V330 9999 OVC023/// 01/M04 Q1007
2021/01/27 17:50 EVVA 271750Z AUTO 31010KT 9999 FEW022 OVC033 01/M00 Q1005
2021/01/27 17:50 EYKA 271750Z 28008KT 250V340 9999 BKN022 OVC041 00/M02 Q1005 R08/490493
2021/01/27 17:50 EYPA 271750Z AUTO 31004KT 270V020 9999 OVC021/// 01/M03 Q1008
2021/01/27 17:50 EYSA 271750Z 28012KT 9999 -SN SCT009 BKN016 OVC027 M00/M02 Q1005 R14L/29//95 R14R/29//95 GRN NOSIG
2021/01/27 17:50 EYVI 271750Z 29010KT 4300 -SN BR OVC004 M00/M01 Q1004 R19/5/0294 NOSIG
2021/01/27 16:20 EEKA 271620Z 33012KT 5000 -SN BKN013 OVC025 M00/M01 Q1002
2021/01/27 17:51 EEKE 271751Z AUTO 31007KT 280V340 3800NDV -SN FEW009 BKN015 BKN027 M00/M00 Q1003

2021/01/27 17:50 EETN 271750Z 30007KT 7000 OVC003 00/M00 Q1000 R08/690294 TEMPO 3000 SN
2021/01/27 17:50 EETU 271750Z AUTO 21001KT 6000 BKN011/// OVC013/// 01/00 Q1000
   RIGA AIRPORT     EVRA               56 55N  023 58E   10   X     T          6 LV
   LIEPAJA INTL     EVLA        26406  56 31N  021 06E    4   X                8 LV
   VENTPILS         EVVA               57 21N  021 33E    6   X                8 LV
   KAUNAS           EYKA               54 54N  023 55E   77   X     T          6 LT
   PALANGA INTL     EYPA               55 55N  021 03E   10   X                6 LT
   SIAULIAI INTL    EYSA               55 54N  023 24E  135   X     T          6 LT
   VILNIUS INTL     EYVI        26730  54 38N  025 17E  197   X     T          6 LT
   KARDLA           EEKA        26116  58 59N  022 50E    4   X                8 EE
   KURESSAARE       EEKE               58 14N  022 31E    4   X                8 EE
   PARNU            EEPU               58 25N  024 28E   14   X                8 EE
   TALLINN          EETN        26038  59 24N  024 49E   40   X     T          8 EE
   TARTU            EETU               58 19N  026 41E   67   X                8 EE

cloud coverage image from sat24.com and METAR data from weather.noaa.gov